createdAt,value
2023-05-02T00:02:19.896Z,16.55
2023-05-02T00:04:46.084Z,16.58
2023-05-02T00:07:12.117Z,16.70
2023-05-02T00:09:38.118Z,17.83
2023-05-02T00:12:04.095Z,16.60
2023-05-02T00:14:29.936Z,18.48
2023-05-02T00:16:55.784Z,19.27
2023-05-02T00:19:21.656Z,19.65
2023-05-02T00:21:48.486Z,20.27
2023-05-02T00:24:15.553Z,20.40
2023-05-02T00:26:44.133Z,20.38
2023-05-02T00:29:09.972Z,20.30
2023-05-02T00:31:36.181Z,23.13
2023-05-02T00:34:02.042Z,25.63
2023-05-02T00:36:27.876Z,22.05
2023-05-02T00:38:53.820Z,25.42
2023-05-02T00:41:19.795Z,24.10
2023-05-02T00:43:45.732Z,24.10
2023-05-02T00:46:12.787Z,23.65
2023-05-02T00:48:39.113Z,22.30
2023-05-02T00:51:05.633Z,22.08
2023-05-02T00:53:31.741Z,22.90
2023-05-02T00:55:58.420Z,21.13
2023-05-02T00:58:25.974Z,21.58
2023-05-02T01:00:54.937Z,22.83
2023-05-02T01:03:36.243Z,22.65
2023-05-02T01:06:33.185Z,22.70
2023-05-02T01:09:36.263Z,23.77
2023-05-02T01:12:10.963Z,24.13
2023-05-02T01:14:43.321Z,24.58
2023-05-02T01:17:14.927Z,24.52
2023-05-02T01:20:13.113Z,24.45
2023-05-02T01:22:43.158Z,24.88
2023-05-02T01:25:46.481Z,26.00
2023-05-02T01:28:38.223Z,24.42
2023-05-02T01:31:05.633Z,25.17
2023-05-02T01:33:34.498Z,24.15
2023-05-02T01:36:02.640Z,25.42
2023-05-02T01:38:29.338Z,25.60
2023-05-02T01:40:57.722Z,28.95
2023-05-02T01:43:25.287Z,26.77
2023-05-02T01:45:52.434Z,28.90
2023-05-02T01:48:19.785Z,28.95
2023-05-02T01:50:48.124Z,31.65
2023-05-02T01:53:14.589Z,32.30
2023-05-02T01:55:44.585Z,31.33
2023-05-02T01:58:11.441Z,35.13
2023-05-02T02:00:38.968Z,36.70
2023-05-02T02:03:06.844Z,37.58
2023-05-02T02:05:34.366Z,32.28
2023-05-02T02:08:00.537Z,36.92
2023-05-02T02:10:31.142Z,35.88
2023-05-02T02:13:13.184Z,35.78
2023-05-02T02:15:40.870Z,35.85
2023-05-02T02:18:12.760Z,35.38
2023-05-02T02:20:42.539Z,35.50
2023-05-02T02:23:10.290Z,37.58
2023-05-02T02:25:37.154Z,38.95
2023-05-02T02:28:03.567Z,38.40
2023-05-02T02:30:29.487Z,38.67
2023-05-02T02:32:55.357Z,38.70
2023-05-02T02:35:22.859Z,39.10
2023-05-02T02:38:02.688Z,39.00
2023-05-02T02:40:37.212Z,39.60
2023-05-02T02:43:03.586Z,37.10
2023-05-02T02:45:53.128Z,34.55
2023-05-02T02:48:32.474Z,35.83
2023-05-02T02:51:01.472Z,36.25
2023-05-02T02:53:39.857Z,34.28
2023-05-02T02:56:15.227Z,35.65
2023-05-02T02:59:03.892Z,37.38
2023-05-02T03:01:33.559Z,35.42
2023-05-02T03:04:04.976Z,35.53
2023-05-02T03:06:31.059Z,35.45
2023-05-02T03:08:57.650Z,36.05
2023-05-02T03:11:23.471Z,36.38
2023-05-02T03:13:49.262Z,36.17
2023-05-02T03:16:38.641Z,37.42
2023-05-02T03:19:06.145Z,36.10
2023-05-02T03:21:32.676Z,37.80
2023-05-02T03:24:00.151Z,39.80
2023-05-02T03:26:26.664Z,42.47
2023-05-02T03:28:53.186Z,40.72
2023-05-02T03:31:19.119Z,41.45
2023-05-02T03:33:44.949Z,41.60
2023-05-02T03:36:10.869Z,42.60
2023-05-02T03:38:36.702Z,40.40
2023-05-02T03:41:03.357Z,40.88
2023-05-02T03:43:30.168Z,42.05
2023-05-02T03:45:56.089Z,42.67
2023-05-02T03:48:22.092Z,43.03
2023-05-02T03:50:48.957Z,41.33
2023-05-02T03:53:15.519Z,43.35
2023-05-02T03:55:42.739Z,42.00
2023-05-02T03:58:10.121Z,36.05
2023-05-02T04:00:37.537Z,34.70
2023-05-02T04:03:03.954Z,35.95
2023-05-02T04:05:29.851Z,32.22
2023-05-02T04:07:56.560Z,31.83
2023-05-02T04:10:22.551Z,30.02
2023-05-02T04:12:48.489Z,28.58
2023-05-02T04:15:14.496Z,25.77
2023-05-02T04:17:40.432Z,24.75
2023-05-02T04:20:07.055Z,25.15
2023-05-02T04:22:33.272Z,23.98
2023-05-02T04:24:59.208Z,23.05
2023-05-02T04:27:25.257Z,23.13
2023-05-02T04:29:52.623Z,23.90
2023-05-02T04:32:18.834Z,25.45
2023-05-02T04:34:44.708Z,22.65
2023-05-02T04:37:10.551Z,23.83
2023-05-02T04:39:36.341Z,20.23
2023-05-02T04:42:02.906Z,21.88
2023-05-02T04:44:28.697Z,22.65
2023-05-02T04:46:54.577Z,20.05
2023-05-02T04:49:20.497Z,19.02
2023-05-02T04:51:46.268Z,18.38
2023-05-02T04:54:12.313Z,18.77
2023-05-02T04:56:38.706Z,18.83
2023-05-02T04:59:04.514Z,18.83
2023-05-02T05:01:30.431Z,19.05
2023-05-02T05:03:56.396Z,17.98
2023-05-02T05:06:22.521Z,18.60
2023-05-02T05:08:48.477Z,18.85
2023-05-02T05:11:15.298Z,18.52
2023-05-02T05:13:41.961Z,18.92
2023-05-02T05:16:08.286Z,18.98
2023-05-02T05:18:39.743Z,19.50
2023-05-02T05:21:09.524Z,18.58
2023-05-02T05:23:36.699Z,19.23
2023-05-02T05:26:12.675Z,18.70
2023-05-02T05:28:38.803Z,18.45
2023-05-02T05:31:08.707Z,19.92
2023-05-02T05:33:35.277Z,19.70
2023-05-02T05:36:19.708Z,18.75
2023-05-02T05:38:46.766Z,15.27
2023-05-02T05:41:12.600Z,13.82
2023-05-02T05:43:38.542Z,14.55
2023-05-02T05:46:04.793Z,13.43
2023-05-02T05:48:30.703Z,12.43
2023-05-02T05:50:56.538Z,13.23
2023-05-02T05:53:22.372Z,13.52
2023-05-02T05:55:48.266Z,12.05
2023-05-02T05:58:14.673Z,11.40
2023-05-02T06:00:41.663Z,10.57
2023-05-02T06:03:09.565Z,11.50
2023-05-02T06:05:36.014Z,10.77
2023-05-02T06:08:02.064Z,10.18
2023-05-02T06:10:27.936Z,9.77
2023-05-02T06:12:53.753Z,10.70
2023-05-02T06:15:19.753Z,10.07
2023-05-02T06:17:45.604Z,9.82
2023-05-02T06:20:11.667Z,9.25
2023-05-02T06:22:38.997Z,8.95
2023-05-02T06:25:05.770Z,11.30
2023-05-02T06:27:33.563Z,9.85
2023-05-02T06:29:59.942Z,8.52
2023-05-02T06:32:29.999Z,9.60
2023-05-02T06:34:55.821Z,9.50
2023-05-02T06:37:21.677Z,8.05
2023-05-02T06:39:47.512Z,7.30
2023-05-02T06:42:13.396Z,8.30
2023-05-02T06:44:39.193Z,7.55
2023-05-02T06:47:06.781Z,6.57
2023-05-02T06:49:33.048Z,7.20
2023-05-02T06:51:58.890Z,5.18
2023-05-02T06:54:25.689Z,5.50
2023-05-02T06:56:51.593Z,5.03
2023-05-02T06:59:17.389Z,5.20
2023-05-02T07:01:43.840Z,5.40
2023-05-02T07:04:09.852Z,6.32
2023-05-02T07:06:36.147Z,6.95
2023-05-02T07:09:02.085Z,7.95
2023-05-02T07:11:27.910Z,7.63
2023-05-02T07:13:53.910Z,7.75
2023-05-02T07:16:20.031Z,6.82
2023-05-02T07:18:45.975Z,6.82
2023-05-02T07:21:12.576Z,6.32
2023-05-02T07:23:38.446Z,6.78
2023-05-02T07:26:07.343Z,6.93
2023-05-02T07:28:33.289Z,6.25
2023-05-02T07:30:59.127Z,5.53
2023-05-02T07:33:25.050Z,6.32
2023-05-02T07:35:51.347Z,6.68
2023-05-02T07:38:17.189Z,6.22
2023-05-02T07:40:43.107Z,6.18
2023-05-02T07:43:11.081Z,5.55
2023-05-02T07:45:37.147Z,4.82
2023-05-02T07:48:03.260Z,5.38
2023-05-02T07:50:29.087Z,4.95
2023-05-02T07:52:55.516Z,4.60
2023-05-02T07:55:21.627Z,4.35
2023-05-02T07:57:47.502Z,4.60
2023-05-02T08:00:13.882Z,4.10
2023-05-02T08:02:41.204Z,3.67
2023-05-02T08:05:07.689Z,3.38
2023-05-02T08:07:34.762Z,4.57
2023-05-02T08:10:01.341Z,3.95
2023-05-02T08:12:27.500Z,3.40
2023-05-02T08:14:53.823Z,3.95
2023-05-02T08:17:20.714Z,3.95
2023-05-02T08:19:46.567Z,3.38
2023-05-02T08:22:12.469Z,3.53
2023-05-02T08:24:38.365Z,3.55
2023-05-02T08:27:04.124Z,3.28
2023-05-02T08:29:30.648Z,3.30
2023-05-02T08:31:56.756Z,3.40
2023-05-02T08:34:22.619Z,5.95
2023-05-02T08:36:48.419Z,3.72
2023-05-02T08:39:14.674Z,3.88
2023-05-02T08:41:40.639Z,3.95
2023-05-02T08:44:09.800Z,4.72
2023-05-02T08:46:36.997Z,4.82
2023-05-02T08:49:04.930Z,4.45
2023-05-02T08:51:32.072Z,5.32
2023-05-02T08:53:59.220Z,5.60
2023-05-02T08:56:25.594Z,5.32
2023-05-02T08:58:51.597Z,5.40
2023-05-02T09:01:21.920Z,6.18
2023-05-02T09:03:48.137Z,6.05
2023-05-02T09:06:21.844Z,6.28
2023-05-02T09:08:50.173Z,6.32
2023-05-02T09:11:16.727Z,6.45
2023-05-02T09:13:47.128Z,7.82
2023-05-02T09:16:22.026Z,7.60
2023-05-02T09:18:49.837Z,8.68
2023-05-02T09:21:21.499Z,7.00
2023-05-02T09:24:00.955Z,7.22
2023-05-02T09:26:32.039Z,6.53
2023-05-02T09:29:00.585Z,2.70
2023-05-02T09:31:54.315Z,2.40
2023-05-02T09:34:22.682Z,1.60
2023-05-02T09:36:51.192Z,1.70
2023-05-02T09:41:47.548Z,1.50
2023-05-02T09:44:21.783Z,2.20
2023-05-02T09:46:49.304Z,2.03
2023-05-02T09:49:18.977Z,1.85
2023-05-02T09:51:46.629Z,2.45
2023-05-02T09:54:13.693Z,2.47
2023-05-02T09:56:55.955Z,3.22
2023-05-02T09:59:22.337Z,2.63
2023-05-02T10:02:08.865Z,2.83
2023-05-02T10:04:35.925Z,2.55
2023-05-02T10:07:02.613Z,2.60
2023-05-02T10:09:31.819Z,2.78
2023-05-02T10:12:04.178Z,3.20
2023-05-02T10:14:34.228Z,2.85
2023-05-02T10:17:13.609Z,2.97
2023-05-02T10:19:56.154Z,3.58
2023-05-02T10:22:22.516Z,3.20
2023-05-02T10:24:49.691Z,3.28
2023-05-02T10:27:15.941Z,3.47
2023-05-02T10:29:42.030Z,3.25
2023-05-02T10:32:08.792Z,3.40
2023-05-02T10:34:35.465Z,4.35
2023-05-02T10:37:01.832Z,3.25
2023-05-02T10:39:29.052Z,3.25
2023-05-02T10:41:57.610Z,4.50
2023-05-02T10:44:40.598Z,3.30
2023-05-02T10:47:26.108Z,4.00
2023-05-02T10:49:54.542Z,4.88
2023-05-02T10:52:40.820Z,4.88
2023-05-02T10:55:18.673Z,5.47
2023-05-02T10:57:56.716Z,5.07
2023-05-02T11:00:28.542Z,6.95
2023-05-02T11:02:55.197Z,7.60
2023-05-02T11:05:23.391Z,7.53
2023-05-02T11:07:49.528Z,8.25
2023-05-02T11:10:21.577Z,6.00
2023-05-02T11:12:55.767Z,5.65
2023-05-02T11:15:28.226Z,5.10
2023-05-02T11:18:09.157Z,4.45
2023-05-02T11:20:36.559Z,3.65
2023-05-02T11:23:14.549Z,4.55
2023-05-02T11:25:54.462Z,4.22
2023-05-02T11:28:44.544Z,4.05
2023-05-02T11:31:28.597Z,4.97
2023-05-02T11:33:58.476Z,4.35
2023-05-02T11:36:32.730Z,4.63
2023-05-02T11:39:00.319Z,5.13
2023-05-02T11:41:42.190Z,5.60
2023-05-02T11:44:08.137Z,6.88
2023-05-02T11:46:38.599Z,6.80
2023-05-02T11:49:06.967Z,6.65
2023-05-02T11:51:35.085Z,6.43
2023-05-02T11:54:01.068Z,6.40
2023-05-02T11:56:27.494Z,5.85
2023-05-02T11:59:01.061Z,7.13
2023-05-02T12:01:27.596Z,6.60
2023-05-02T12:04:09.891Z,6.82
2023-05-02T12:06:36.085Z,6.90
2023-05-02T12:09:19.590Z,7.10
2023-05-02T12:11:51.413Z,8.02
2023-05-02T12:14:17.315Z,8.40
2023-05-02T12:16:43.376Z,8.07
2023-05-02T12:19:09.583Z,8.27
2023-05-02T12:21:35.602Z,7.97
2023-05-02T12:24:02.295Z,6.93
2023-05-02T12:26:32.967Z,6.40
2023-05-02T12:29:00.176Z,6.10
2023-05-02T12:31:28.357Z,5.97
2023-05-02T12:33:56.889Z,5.60
2023-05-02T12:36:23.604Z,6.35
2023-05-02T12:38:52.528Z,4.90
2023-05-02T12:41:32.374Z,4.45
2023-05-02T12:43:59.956Z,4.38
2023-05-02T12:46:28.511Z,4.40
2023-05-02T12:49:05.502Z,4.32
2023-05-02T12:51:32.338Z,4.68
2023-05-02T12:53:58.200Z,4.50
2023-05-02T12:56:26.874Z,4.28
2023-05-02T12:58:52.699Z,4.60
2023-05-02T13:01:18.798Z,4.68
2023-05-02T13:03:44.775Z,5.78
2023-05-02T13:06:10.750Z,5.22
2023-05-02T13:08:36.705Z,5.60
2023-05-02T13:11:03.722Z,5.45
2023-05-02T13:13:30.461Z,6.22
2023-05-02T13:15:56.354Z,6.07
2023-05-02T13:18:22.593Z,5.63
2023-05-02T13:20:48.887Z,5.30
2023-05-02T13:23:16.150Z,6.07
2023-05-02T13:25:42.255Z,6.65
2023-05-02T13:28:08.147Z,7.60
2023-05-02T13:30:34.304Z,7.88
2023-05-02T13:33:00.562Z,6.80
2023-05-02T13:35:26.629Z,6.93
2023-05-02T13:37:52.457Z,7.35
2023-05-02T13:40:18.360Z,6.95
2023-05-02T13:42:44.240Z,8.30
2023-05-02T13:45:10.730Z,7.18
2023-05-02T13:47:37.023Z,8.57
2023-05-02T13:50:03.453Z,7.70
2023-05-02T13:52:29.622Z,6.95
2023-05-02T13:54:55.459Z,7.60
2023-05-02T13:57:21.271Z,6.93
2023-05-02T13:59:47.214Z,6.28
2023-05-02T14:02:12.973Z,5.47
2023-05-02T14:04:38.742Z,5.45
2023-05-02T14:07:04.570Z,5.72
2023-05-02T14:09:30.453Z,6.28
2023-05-02T14:11:58.034Z,6.72
2023-05-02T14:14:24.090Z,5.97
2023-05-02T14:16:50.649Z,5.35
2023-05-02T14:19:16.675Z,5.68
2023-05-02T14:21:42.575Z,5.60
2023-05-02T14:24:08.414Z,6.38
2023-05-02T14:26:34.404Z,5.57
2023-05-02T14:29:00.920Z,4.40
2023-05-02T14:31:27.065Z,5.13
2023-05-02T14:33:53.064Z,4.45
2023-05-02T14:36:19.175Z,4.85
2023-05-02T14:38:45.087Z,4.82
2023-05-02T14:41:11.095Z,5.50
2023-05-02T14:43:37.129Z,5.85
2023-05-02T14:46:03.318Z,5.15
2023-05-02T14:48:29.440Z,4.72
2023-05-02T14:50:56.695Z,4.78
2023-05-02T14:53:22.645Z,4.80
2023-05-02T14:55:48.577Z,5.15
2023-05-02T14:58:19.633Z,4.70
2023-05-02T15:00:46.333Z,5.28
2023-05-02T15:03:12.597Z,5.00
2023-05-02T15:05:39.291Z,3.85
2023-05-02T15:08:05.591Z,4.05
2023-05-02T15:10:33.830Z,4.45
2023-05-02T15:12:59.964Z,4.00
2023-05-02T15:15:26.232Z,3.92
2023-05-02T15:17:52.332Z,4.13
2023-05-02T15:20:18.479Z,4.28
2023-05-02T15:22:44.491Z,3.95
2023-05-02T15:25:10.552Z,3.38
2023-05-02T15:27:36.484Z,3.20
2023-05-02T15:30:03.253Z,3.63
2023-05-02T15:32:29.473Z,2.60
2023-05-02T15:34:55.406Z,2.92
2023-05-02T15:37:21.251Z,3.63
2023-05-02T15:39:47.208Z,2.50
2023-05-02T15:42:13.066Z,3.47
2023-05-02T15:44:38.881Z,4.00
2023-05-02T15:47:05.106Z,3.20
2023-05-02T15:49:32.733Z,3.95
2023-05-02T15:51:59.491Z,3.22
2023-05-02T15:54:25.570Z,3.42
2023-05-02T15:56:51.453Z,3.33
2023-05-02T15:59:18.289Z,3.15
2023-05-02T16:01:44.824Z,3.55
2023-05-02T16:04:10.951Z,3.83
2023-05-02T16:06:37.370Z,3.45
2023-05-02T16:09:05.733Z,3.40
2023-05-02T16:11:32.273Z,3.13
2023-05-02T16:13:59.672Z,3.67
2023-05-02T16:16:27.236Z,3.95
2023-05-02T16:18:53.343Z,3.55
2023-05-02T16:21:19.473Z,3.67
2023-05-02T16:23:45.456Z,3.85
2023-05-02T16:26:11.344Z,3.83
2023-05-02T16:28:37.236Z,4.40
2023-05-02T16:31:07.289Z,4.53
2023-05-02T16:33:33.246Z,4.45
2023-05-02T16:36:01.148Z,4.85
2023-05-02T16:38:27.050Z,5.07
2023-05-02T16:40:52.888Z,4.82
2023-05-02T16:43:18.972Z,4.25
2023-05-02T16:45:46.574Z,4.28
2023-05-02T16:48:13.046Z,3.95
2023-05-02T16:50:38.970Z,4.70
2023-05-02T16:53:05.792Z,5.28
2023-05-02T16:55:31.722Z,4.70
2023-05-02T16:57:57.649Z,4.75
2023-05-02T17:00:23.784Z,4.80
2023-05-02T17:02:51.597Z,5.10
2023-05-02T17:05:19.316Z,4.63
2023-05-02T17:07:45.479Z,5.03
2023-05-02T17:10:11.756Z,4.68
2023-05-02T17:12:37.695Z,5.40
2023-05-02T17:15:04.470Z,5.03
2023-05-02T17:17:30.610Z,5.45
2023-05-02T17:19:56.497Z,5.40
2023-05-02T17:22:22.834Z,5.38
2023-05-02T17:24:52.108Z,5.70
2023-05-02T17:27:20.058Z,5.95
2023-05-02T17:29:45.975Z,5.35
2023-05-02T17:32:14.074Z,6.55
2023-05-02T17:34:40.095Z,6.20
2023-05-02T17:37:07.212Z,6.60
2023-05-02T17:39:33.301Z,6.90
2023-05-02T17:42:02.414Z,5.97
2023-05-02T17:44:30.709Z,6.13
2023-05-02T17:46:57.363Z,6.55
2023-05-02T17:49:23.415Z,5.82
2023-05-02T17:51:49.220Z,5.57
2023-05-02T17:54:15.330Z,7.20
2023-05-02T17:56:41.962Z,6.03
2023-05-02T17:59:09.646Z,5.68
2023-05-02T18:01:35.592Z,5.90
2023-05-02T18:04:03.331Z,5.85
2023-05-02T18:06:31.077Z,6.45
2023-05-02T18:08:58.710Z,5.57
2023-05-02T18:11:26.055Z,6.50
2023-05-02T18:13:52.394Z,7.30
2023-05-02T18:16:18.564Z,6.68
2023-05-02T18:18:44.750Z,5.70
2023-05-02T18:21:10.953Z,6.20
2023-05-02T18:23:37.204Z,6.43
2023-05-02T18:26:03.423Z,6.13
2023-05-02T18:28:29.531Z,6.28
2023-05-02T18:30:55.407Z,5.13
2023-05-02T18:33:21.326Z,6.05
2023-05-02T18:35:48.114Z,5.47
2023-05-02T18:38:15.102Z,6.45
2023-05-02T18:40:41.965Z,5.90
2023-05-02T18:43:07.916Z,6.72
2023-05-02T18:45:35.141Z,6.25
2023-05-02T18:48:02.274Z,8.15
2023-05-02T18:50:28.187Z,6.45
2023-05-02T18:52:54.270Z,6.88
2023-05-02T18:55:23.518Z,6.85
2023-05-02T18:57:51.083Z,6.70
2023-05-02T19:00:18.504Z,5.93
2023-05-02T19:02:44.639Z,7.75
2023-05-02T19:05:10.591Z,5.97
2023-05-02T19:07:38.430Z,7.43
2023-05-02T19:10:05.059Z,6.60
2023-05-02T19:12:31.029Z,6.53
2023-05-02T19:14:56.903Z,7.20
2023-05-02T19:17:26.157Z,7.32
2023-05-02T19:19:52.590Z,7.57
2023-05-02T19:22:21.698Z,7.80
2023-05-02T19:24:47.793Z,7.30
2023-05-02T19:27:14.461Z,7.35
2023-05-02T19:29:40.956Z,7.30
2023-05-02T19:32:07.163Z,7.63
2023-05-02T19:34:35.984Z,7.63
2023-05-02T19:37:03.680Z,8.55
2023-05-02T19:39:30.960Z,7.35
2023-05-02T19:41:57.054Z,7.90
2023-05-02T19:44:23.242Z,8.68
2023-05-02T19:46:49.474Z,8.23
2023-05-02T19:49:15.503Z,7.57
2023-05-02T19:51:41.286Z,7.25
2023-05-02T19:54:07.350Z,6.43
2023-05-02T19:56:33.369Z,7.57
2023-05-02T19:59:00.567Z,6.65
2023-05-02T20:01:28.742Z,6.93
2023-05-02T20:03:55.081Z,6.10
2023-05-02T20:06:21.345Z,6.45
2023-05-02T20:08:47.555Z,6.88
2023-05-02T20:11:13.826Z,6.75
2023-05-02T20:13:40.061Z,6.88
2023-05-02T20:16:06.809Z,6.75
2023-05-02T20:18:32.688Z,8.07
2023-05-02T20:20:58.612Z,8.43
2023-05-02T20:23:24.490Z,6.95
2023-05-02T20:25:50.856Z,6.80
2023-05-02T20:28:16.816Z,7.00
2023-05-02T20:30:43.440Z,7.15
2023-05-02T20:33:15.371Z,7.53
2023-05-02T20:35:42.509Z,7.53
2023-05-02T20:38:09.086Z,7.10
2023-05-02T20:40:41.785Z,8.50
2023-05-02T20:43:08.202Z,8.00
2023-05-02T20:45:34.521Z,7.80
2023-05-02T20:48:00.410Z,7.85
2023-05-02T20:50:27.633Z,8.07
2023-05-02T20:52:54.308Z,9.05
2023-05-02T20:55:21.994Z,8.50
2023-05-02T20:57:52.010Z,8.73
2023-05-02T21:00:19.097Z,8.00
2023-05-02T21:02:45.096Z,6.90
2023-05-02T21:05:11.246Z,6.90
2023-05-02T21:07:39.696Z,7.15
2023-05-02T21:10:08.604Z,6.75
2023-05-02T21:12:34.529Z,6.90
2023-05-02T21:15:00.412Z,7.05
2023-05-02T21:17:26.350Z,6.82
2023-05-02T21:19:53.568Z,7.25
2023-05-02T21:22:19.357Z,7.30
2023-05-02T21:24:49.944Z,5.97
2023-05-02T21:27:15.959Z,6.32
2023-05-02T21:29:41.798Z,5.55
2023-05-02T21:32:07.769Z,7.03
2023-05-02T21:34:33.675Z,6.18
2023-05-02T21:37:00.392Z,5.78
2023-05-02T21:39:26.261Z,6.30
2023-05-02T21:41:52.289Z,5.60
2023-05-02T21:44:18.155Z,5.80
2023-05-02T21:46:46.438Z,5.63
2023-05-02T21:49:12.536Z,6.10
2023-05-02T21:51:39.923Z,4.97
2023-05-02T21:54:06.618Z,4.72
2023-05-02T21:56:32.467Z,5.43
2023-05-02T21:58:58.418Z,5.82
2023-05-02T22:01:24.605Z,5.78
2023-05-02T22:03:50.964Z,5.55
2023-05-02T22:06:16.894Z,6.10
2023-05-02T22:08:43.949Z,5.88
2023-05-02T22:11:09.890Z,5.30
2023-05-02T22:13:36.102Z,5.57
2023-05-02T22:16:02.457Z,5.07
2023-05-02T22:18:28.341Z,5.97
2023-05-02T22:20:56.508Z,5.93
2023-05-02T22:23:23.075Z,5.78
2023-05-02T22:25:48.882Z,6.40
2023-05-02T22:28:14.746Z,6.75
2023-05-02T22:30:44.124Z,6.82
2023-05-02T22:33:11.263Z,6.88
2023-05-02T22:35:37.771Z,7.15
2023-05-02T22:38:04.263Z,6.90
2023-05-02T22:40:30.805Z,7.43
2023-05-02T22:42:57.658Z,7.25
2023-05-02T22:45:23.677Z,6.10
2023-05-02T22:47:50.672Z,5.72
2023-05-02T22:50:16.544Z,6.30
2023-05-02T22:52:42.366Z,5.85
2023-05-02T22:55:08.704Z,5.22
2023-05-02T22:57:38.492Z,6.05
2023-05-02T23:00:06.582Z,6.03
2023-05-02T23:02:32.844Z,5.80
2023-05-02T23:04:58.769Z,5.30
2023-05-02T23:07:24.767Z,5.95
2023-05-02T23:09:50.810Z,5.90
2023-05-02T23:12:16.697Z,5.50
2023-05-02T23:14:42.723Z,5.50
2023-05-02T23:17:08.515Z,5.63
2023-05-02T23:19:34.346Z,4.68
2023-05-02T23:22:00.228Z,5.45
2023-05-02T23:24:26.864Z,4.90
2023-05-02T23:26:52.708Z,4.93
2023-05-02T23:29:18.615Z,4.97
2023-05-02T23:31:44.768Z,5.28
2023-05-02T23:34:11.627Z,5.22
2023-05-02T23:36:38.507Z,4.55
2023-05-02T23:39:05.333Z,5.18
2023-05-02T23:41:31.715Z,4.60
2023-05-02T23:43:57.534Z,4.63
2023-05-02T23:46:24.251Z,4.00
2023-05-02T23:48:50.074Z,4.63
2023-05-02T23:51:18.461Z,4.80
2023-05-02T23:53:44.306Z,4.68
2023-05-02T23:56:10.150Z,4.88
2023-05-02T23:58:35.952Z,4.70
